Time;durP1;ratioP1;P1;durP2;ratioP2;P2;SDS_P1;SDS_P2;PMS_P1;PMS_P2;Temp;Humidity;BMP_temperature;BMP_pressure;BME280_temperature;BME280_humidity;BME280_pressure;Samples;Min_cycle;Max_cycle;Signal;HPM_P1;HPM_P2
2021/09/06 00:00:09;;;;;;;;;;;21.70;71.20;;;;;;5059874;28;19921;-54
2021/09/06 00:02:34;;;;;;;;;;;21.70;71.20;;;;;;5056093;28;20301;-55
2021/09/06 00:05:00;;;;;;;;;;;21.70;71.20;;;;;;5050066;28;19920;-54
2021/09/06 00:07:27;;;;;;;;;;;21.70;71.20;;;;;;5028454;28;21360;-56
2021/09/06 00:09:53;;;;;;;;;;;21.70;71.20;;;;;;5054202;28;19921;-57
2021/09/06 00:12:18;;;;;;;;;;;21.70;71.20;;;;;;5043884;28;19924;-58
2021/09/06 00:14:44;;;;;;;;;;;21.70;71.20;;;;;;5051287;28;20333;-59
2021/09/06 00:17:09;;;;;;;;;;;21.70;71.10;;;;;;5064678;28;19927;-52
2021/09/06 00:19:35;;;;;;;;;;;21.70;71.10;;;;;;5043296;28;19913;-56
2021/09/06 00:22:00;;;;;;;;;;;21.60;71.00;;;;;;5028299;28;19913;-55
2021/09/06 00:24:26;;;;;;;;;;;21.70;71.10;;;;;;5054726;28;20288;-55
2021/09/06 00:26:51;;;;;;;;;;;21.70;71.00;;;;;;5056080;28;19913;-55
2021/09/06 00:29:16;;;;;;;;;;;21.70;71.00;;;;;;5052235;28;20289;-58
2021/09/06 00:31:42;;;;;;;;;;;21.70;71.00;;;;;;5044009;28;19928;-57
2021/09/06 00:34:07;;;;;;;;;;;21.70;71.00;;;;;;5051914;28;19917;-54
2021/09/06 00:36:34;;;;;;;;;;;21.70;70.90;;;;;;5060379;28;23564;-57
2021/09/06 00:38:59;;;;;;;;;;;21.70;70.90;;;;;;5049292;28;19920;-57
2021/09/06 00:41:25;;;;;;;;;;;21.60;70.80;;;;;;5062223;28;19916;-58
2021/09/06 00:43:50;;;;;;;;;;;21.70;70.90;;;;;;5048977;28;19919;-51
2021/09/06 00:46:16;;;;;;;;;;;21.60;70.90;;;;;;5056708;28;19913;-52
2021/09/06 00:48:41;;;;;;;;;;;21.70;70.80;;;;;;5051200;28;20316;-58
2021/09/06 00:51:07;;;;;;;;;;;21.70;70.80;;;;;;5060436;28;19962;-52
2021/09/06 00:53:32;;;;;;;;;;;21.70;70.70;;;;;;5055168;28;19920;-51
2021/09/06 00:55:58;;;;;;;;;;;21.60;70.70;;;;;;5052914;28;19917;-60
2021/09/06 00:58:24;;;;;;;;;;;21.60;70.70;;;;;;5075344;28;20004;-57
2021/09/06 01:00:49;;;;;;;;;;;21.70;70.70;;;;;;5044788;28;20009;-52
2021/09/06 01:03:15;;;;;;;;;;;21.70;70.60;;;;;;5049555;28;19913;-52
2021/09/06 01:05:40;;;;;;;;;;;21.70;70.60;;;;;;5052996;28;20400;-55
2021/09/06 01:08:06;;;;;;;;;;;21.70;70.60;;;;;;5049260;28;19916;-54
2021/09/06 01:10:31;;;;;;;;;;;21.70;70.60;;;;;;5047919;28;19924;-52
2021/09/06 01:12:57;;;;;;;;;;;21.60;70.60;;;;;;5044486;28;19917;-53
2021/09/06 01:15:22;;;;;;;;;;;21.70;70.60;;;;;;5062692;28;20395;-57
2021/09/06 01:17:48;;;;;;;;;;;21.70;70.60;;;;;;5050868;28;19912;-51
2021/09/06 01:20:13;;;;;;;;;;;21.70;70.50;;;;;;5043270;28;19920;-60
2021/09/06 01:22:38;;;;;;;;;;;21.60;70.50;;;;;;5057233;28;19969;-58
2021/09/06 01:25:04;;;;;;;;;;;21.70;70.50;;;;;;5036921;28;19917;-53
2021/09/06 01:27:30;;;;;;;;;;;21.70;70.50;;;;;;5050001;28;20293;-52
2021/09/06 01:29:55;;;;;;;;;;;21.60;70.40;;;;;;5053428;28;19912;-58
2021/09/06 01:32:21;;;;;;;;;;;21.70;70.40;;;;;;5054396;28;19913;-57
2021/09/06 01:34:46;;;;;;;;;;;21.60;70.40;;;;;;5078818;28;20016;-55
2021/09/06 01:37:11;;;;;;;;;;;21.60;70.30;;;;;;5063727;28;19932;-58
2021/09/06 01:39:37;;;;;;;;;;;21.70;70.40;;;;;;5052339;28;19917;-56
2021/09/06 01:42:02;;;;;;;;;;;21.60;70.40;;;;;;5046975;28;20463;-56
2021/09/06 01:44:28;;;;;;;;;;;21.60;70.30;;;;;;5066553;28;19920;-52
2021/09/06 01:46:53;;;;;;;;;;;21.70;70.30;;;;;;5053131;28;20125;-53
2021/09/06 01:49:19;;;;;;;;;;;21.60;70.30;;;;;;5058550;28;19978;-56
2021/09/06 01:51:44;;;;;;;;;;;21.60;70.30;;;;;;5046918;28;19917;-56
2021/09/06 01:54:10;;;;;;;;;;;21.60;70.20;;;;;;5043307;28;20007;-54
2021/09/06 01:56:36;;;;;;;;;;;21.60;70.20;;;;;;5053703;28;19927;-57
2021/09/06 01:59:01;;;;;;;;;;;21.60;70.20;;;;;;5044645;28;19913;-56
2021/09/06 02:01:26;;;;;;;;;;;21.60;70.10;;;;;;5059044;28;19912;-54
2021/09/06 02:03:52;;;;;;;;;;;21.60;70.10;;;;;;5048588;28;19919;-55
2021/09/06 02:06:18;;;;;;;;;;;21.60;70.10;;;;;;5051096;28;19912;-52
2021/09/06 02:08:43;;;;;;;;;;;21.60;70.10;;;;;;5078337;28;19924;-54
2021/09/06 02:11:09;;;;;;;;;;;21.60;70.10;;;;;;5057461;28;19931;-52
2021/09/06 02:13:34;;;;;;;;;;;21.60;70.10;;;;;;5065071;28;19927;-52
2021/09/06 02:16:00;;;;;;;;;;;21.60;70.00;;;;;;5045125;28;19925;-56
2021/09/06 02:18:25;;;;;;;;;;;21.60;70.00;;;;;;5057469;28;19920;-52
2021/09/06 02:20:50;;;;;;;;;;;21.60;70.00;;;;;;5053715;28;19913;-52
2021/09/06 02:23:16;;;;;;;;;;;21.60;70.00;;;;;;5053813;28;20395;-59
2021/09/06 02:25:41;;;;;;;;;;;21.60;70.00;;;;;;5044585;28;19913;-55
2021/09/06 02:28:07;;;;;;;;;;;21.70;70.00;;;;;;5042729;28;19913;-59
2021/09/06 02:30:32;;;;;;;;;;;21.60;70.00;;;;;;5062924;28;19992;-59
2021/09/06 02:32:58;;;;;;;;;;;21.60;70.00;;;;;;5049819;28;19936;-51
2021/09/06 02:35:23;;;;;;;;;;;21.60;69.90;;;;;;5057625;28;19925;-54
2021/09/06 02:37:49;;;;;;;;;;;21.60;69.90;;;;;;5050914;28;19920;-54
2021/09/06 02:40:15;;;;;;;;;;;21.60;69.90;;;;;;5049473;28;20290;-61
2021/09/06 02:42:40;;;;;;;;;;;21.60;69.80;;;;;;5057061;28;19996;-51
2021/09/06 02:45:06;;;;;;;;;;;21.60;69.80;;;;;;5058479;28;19913;-52
2021/09/06 02:47:31;;;;;;;;;;;21.60;69.80;;;;;;5042500;28;19935;-52
2021/09/06 02:49:58;;;;;;;;;;;21.60;69.70;;;;;;5039798;28;19912;-54
2021/09/06 02:52:23;;;;;;;;;;;21.60;69.60;;;;;;5050792;28;19917;-56
2021/09/06 02:54:49;;;;;;;;;;;21.60;69.70;;;;;;5045925;28;19962;-59
2021/09/06 02:57:14;;;;;;;;;;;21.60;69.60;;;;;;5045352;28;19921;-59
2021/09/06 02:59:40;;;;;;;;;;;21.60;69.70;;;;;;5058727;28;19921;-55
2021/09/06 03:02:05;;;;;;;;;;;21.60;69.60;;;;;;5048458;28;20419;-57
2021/09/06 03:04:31;;;;;;;;;;;21.60;69.60;;;;;;5041827;28;19913;-54
2021/09/06 03:06:56;;;;;;;;;;;21.60;69.60;;;;;;5050635;28;19917;-55
2021/09/06 03:09:21;;;;;;;;;;;21.60;69.60;;;;;;5053039;28;20381;-53
2021/09/06 03:11:47;;;;;;;;;;;21.60;69.60;;;;;;5033022;28;19920;-51
2021/09/06 03:14:12;;;;;;;;;;;21.60;69.60;;;;;;5050577;28;19970;-53
2021/09/06 03:16:38;;;;;;;;;;;21.60;69.60;;;;;;5051964;28;19916;-52
2021/09/06 03:19:03;;;;;;;;;;;21.60;69.60;;;;;;5059347;28;20344;-59
2021/09/06 03:21:29;;;;;;;;;;;21.60;69.50;;;;;;5067654;28;19966;-55
2021/09/06 03:23:54;;;;;;;;;;;21.50;69.50;;;;;;5052776;28;19918;-56
2021/09/06 03:26:20;;;;;;;;;;;21.60;69.60;;;;;;5053014;28;19912;-56
2021/09/06 03:28:46;;;;;;;;;;;21.60;69.50;;;;;;5048443;28;19916;-56
2021/09/06 03:31:12;;;;;;;;;;;21.60;69.50;;;;;;5052123;28;19913;-58
2021/09/06 03:33:37;;;;;;;;;;;21.60;69.50;;;;;;5045258;28;19924;-56
2021/09/06 03:36:03;;;;;;;;;;;21.60;69.40;;;;;;5071385;28;19920;-52
2021/09/06 03:38:28;;;;;;;;;;;21.60;69.50;;;;;;5071994;28;19913;-52
2021/09/06 03:40:54;;;;;;;;;;;21.60;69.40;;;;;;5057534;28;19916;-57
2021/09/06 03:43:19;;;;;;;;;;;21.60;69.40;;;;;;5056846;28;19913;-51
2021/09/06 03:45:45;;;;;;;;;;;21.60;69.50;;;;;;5052775;28;20444;-59
2021/09/06 03:48:10;;;;;;;;;;;21.50;69.40;;;;;;5050710;28;19942;-60
2021/09/06 03:50:36;;;;;;;;;;;21.50;69.30;;;;;;5044582;28;19912;-60
2021/09/06 03:53:01;;;;;;;;;;;21.60;69.30;;;;;;5049460;28;19971;-58
2021/09/06 03:55:27;;;;;;;;;;;21.50;69.20;;;;;;5051312;28;19913;-60
2021/09/06 03:57:52;;;;;;;;;;;21.60;69.30;;;;;;5043654;28;19913;-59
2021/09/06 04:00:17;;;;;;;;;;;21.50;69.20;;;;;;5053132;28;19913;-56
2021/09/06 04:02:43;;;;;;;;;;;21.50;69.20;;;;;;5051606;28;19919;-57
2021/09/06 04:05:09;;;;;;;;;;;21.50;69.20;;;;;;5027987;28;19916;-58
2021/09/06 04:07:34;;;;;;;;;;;21.50;69.10;;;;;;5047808;28;19967;-54
2021/09/06 04:10:00;;;;;;;;;;;21.50;69.10;;;;;;5055677;28;19912;-55
2021/09/06 04:12:25;;;;;;;;;;;21.50;69.10;;;;;;5074002;22;19959;-61
2021/09/06 04:14:51;;;;;;;;;;;21.50;69.10;;;;;;5072818;28;19966;-61
2021/09/06 04:17:16;;;;;;;;;;;21.50;69.10;;;;;;5063976;28;19940;-62
2021/09/06 04:19:42;;;;;;;;;;;21.50;69.00;;;;;;5081954;28;19947;-62
2021/09/06 04:22:07;;;;;;;;;;;21.50;69.00;;;;;;5081526;28;19913;-61
2021/09/06 04:24:33;;;;;;;;;;;21.50;69.00;;;;;;5063755;28;20794;-61
2021/09/06 04:26:59;;;;;;;;;;;21.50;69.00;;;;;;5061412;28;19921;-62
2021/09/06 04:29:25;;;;;;;;;;;21.50;69.00;;;;;;5060543;28;20381;-61
2021/09/06 04:31:50;;;;;;;;;;;21.50;69.00;;;;;;5064120;28;19916;-62
2021/09/06 04:34:16;;;;;;;;;;;21.50;69.00;;;;;;5077709;28;20003;-61
2021/09/06 04:36:41;;;;;;;;;;;21.50;69.00;;;;;;5075502;28;20376;-62
2021/09/06 04:39:07;;;;;;;;;;;21.50;69.00;;;;;;5081053;28;20010;-62
2021/09/06 04:41:32;;;;;;;;;;;21.50;69.10;;;;;;5076951;28;19913;-62
2021/09/06 04:43:58;;;;;;;;;;;21.50;69.30;;;;;;5070414;28;19920;-61
2021/09/06 04:46:23;;;;;;;;;;;21.50;69.40;;;;;;5082937;28;20398;-62
2021/09/06 04:48:48;;;;;;;;;;;21.50;69.40;;;;;;5063487;28;19926;-62
2021/09/06 04:51:14;;;;;;;;;;;21.50;69.40;;;;;;5078971;28;19912;-60
2021/09/06 04:53:40;;;;;;;;;;;21.50;69.40;;;;;;5082388;28;20410;-60
2021/09/06 04:56:06;;;;;;;;;;;21.50;69.50;;;;;;5082010;28;19924;-60
2021/09/06 04:58:31;;;;;;;;;;;21.50;69.50;;;;;;5081585;28;19923;-61
2021/09/06 05:00:57;;;;;;;;;;;21.50;69.50;;;;;;5081741;28;19919;-60
2021/09/06 05:03:22;;;;;;;;;;;21.50;69.50;;;;;;5082744;28;19912;-61
2021/09/06 05:05:47;;;;;;;;;;;21.50;69.40;;;;;;5078036;28;19916;-60
2021/09/06 05:08:13;;;;;;;;;;;21.50;69.50;;;;;;5082799;28;19919;-60
2021/09/06 05:10:38;;;;;;;;;;;21.40;69.30;;;;;;5078381;28;19931;-61
2021/09/06 05:13:04;;;;;;;;;;;21.50;69.30;;;;;;5067647;28;20419;-61
2021/09/06 05:15:29;;;;;;;;;;;21.50;69.30;;;;;;5080329;28;19912;-60
2021/09/06 05:17:55;;;;;;;;;;;21.50;69.30;;;;;;5077527;28;19912;-63
2021/09/06 05:20:21;;;;;;;;;;;21.50;69.20;;;;;;5071501;28;19912;-61
2021/09/06 05:22:46;;;;;;;;;;;21.50;69.20;;;;;;5062308;28;19936;-61
2021/09/06 05:25:12;;;;;;;;;;;21.50;69.60;;;;;;5068095;28;19917;-60
2021/09/06 05:27:37;;;;;;;;;;;21.40;69.80;;;;;;5080768;28;20181;-62
2021/09/06 05:30:03;;;;;;;;;;;21.40;69.80;;;;;;5070087;28;20604;-61
2021/09/06 05:32:29;;;;;;;;;;;21.40;70.40;;;;;;5068872;28;19920;-61
2021/09/06 05:34:54;;;;;;;;;;;21.40;69.80;;;;;;5069361;28;20369;-62
2021/09/06 05:37:20;;;;;;;;;;;21.40;69.70;;;;;;5073963;28;19924;-62
2021/09/06 05:39:45;;;;;;;;;;;21.40;69.80;;;;;;5075913;28;19913;-61
2021/09/06 05:42:11;;;;;;;;;;;21.40;69.70;;;;;;5060535;28;19919;-61
2021/09/06 05:44:36;;;;;;;;;;;21.50;69.70;;;;;;5077140;28;19920;-61
2021/09/06 05:47:02;;;;;;;;;;;21.40;69.60;;;;;;5054349;28;19926;-60
2021/09/06 05:49:27;;;;;;;;;;;21.40;69.50;;;;;;5081403;28;19920;-61
2021/09/06 05:51:52;;;;;;;;;;;21.50;69.40;;;;;;5083040;28;19938;-62
2021/09/06 05:54:18;;;;;;;;;;;21.50;69.30;;;;;;5081190;28;19920;-60
2021/09/06 05:56:43;;;;;;;;;;;21.40;69.10;;;;;;5066639;28;19931;-60
2021/09/06 05:59:09;;;;;;;;;;;21.40;68.90;;;;;;5074364;28;20392;-62
2021/09/06 06:01:34;;;;;;;;;;;21.50;68.90;;;;;;5074631;28;19920;-62
2021/09/06 06:04:00;;;;;;;;;;;21.40;68.60;;;;;;5082091;28;19919;-61
2021/09/06 06:06:25;;;;;;;;;;;21.40;68.50;;;;;;5062878;28;20451;-62
2021/09/06 06:08:50;;;;;;;;;;;21.40;68.40;;;;;;5060525;28;19912;-62
2021/09/06 06:11:16;;;;;;;;;;;21.40;68.30;;;;;;5064611;28;19920;-60
2021/09/06 06:13:41;;;;;;;;;;;21.40;68.30;;;;;;5061819;28;20030;-62
2021/09/06 06:16:07;;;;;;;;;;;21.40;68.10;;;;;;5080923;28;19930;-62
2021/09/06 06:18:33;;;;;;;;;;;21.40;68.10;;;;;;5081307;28;20228;-60
2021/09/06 06:20:58;;;;;;;;;;;21.40;68.00;;;;;;5080714;28;19920;-62
2021/09/06 06:23:24;;;;;;;;;;;21.40;68.00;;;;;;5069229;28;20377;-61
2021/09/06 06:25:49;;;;;;;;;;;21.40;67.90;;;;;;5059917;28;19916;-61
2021/09/06 06:28:15;;;;;;;;;;;21.40;67.90;;;;;;5061643;28;19920;-62
2021/09/06 06:30:40;;;;;;;;;;;21.40;68.00;;;;;;5072214;28;20181;-62
2021/09/06 06:33:05;;;;;;;;;;;21.40;68.00;;;;;;5080688;28;20308;-60
2021/09/06 06:35:31;;;;;;;;;;;21.40;68.00;;;;;;5080799;28;19944;-60
2021/09/06 06:37:56;;;;;;;;;;;21.40;67.90;;;;;;5075465;28;19913;-61
2021/09/06 06:40:22;;;;;;;;;;;21.40;68.00;;;;;;5077653;28;19913;-60
2021/09/06 06:42:47;;;;;;;;;;;21.40;68.60;;;;;;5081468;28;19916;-61
2021/09/06 06:45:13;;;;;;;;;;;21.40;68.00;;;;;;5071280;28;19913;-61
2021/09/06 06:47:38;;;;;;;;;;;21.40;68.10;;;;;;5064703;28;20328;-62
2021/09/06 06:50:04;;;;;;;;;;;21.40;68.10;;;;;;5070759;28;19922;-60
2021/09/06 06:52:29;;;;;;;;;;;21.40;68.20;;;;;;5073186;28;19912;-60
2021/09/06 06:54:55;;;;;;;;;;;21.40;68.20;;;;;;5075697;28;20544;-61
2021/09/06 06:57:20;;;;;;;;;;;21.40;68.20;;;;;;5072898;28;19939;-60
2021/09/06 06:59:46;;;;;;;;;;;21.40;68.30;;;;;;5062965;28;19912;-61
2021/09/06 07:02:11;;;;;;;;;;;21.30;68.30;;;;;;5080622;28;19920;-61
2021/09/06 07:04:37;;;;;;;;;;;21.30;68.30;;;;;;5076067;28;19927;-62
2021/09/06 07:07:02;;;;;;;;;;;21.30;68.50;;;;;;5074003;28;19921;-61
2021/09/06 07:09:28;;;;;;;;;;;21.40;68.60;;;;;;5061381;28;19952;-60
2021/09/06 07:11:53;;;;;;;;;;;21.30;68.60;;;;;;5080055;28;19932;-59
2021/09/06 07:14:19;;;;;;;;;;;21.30;68.60;;;;;;5069467;28;19917;-59
2021/09/06 07:16:44;;;;;;;;;;;21.30;68.70;;;;;;5061537;28;19920;-60
2021/09/06 07:19:10;;;;;;;;;;;21.30;68.70;;;;;;5063895;28;19967;-61
2021/09/06 07:21:35;;;;;;;;;;;21.30;68.80;;;;;;5069885;28;19913;-62
2021/09/06 07:24:00;;;;;;;;;;;21.30;68.80;;;;;;5060182;28;19912;-61
2021/09/06 07:26:26;;;;;;;;;;;21.30;68.90;;;;;;5069653;28;20499;-60
2021/09/06 07:28:51;;;;;;;;;;;21.30;68.80;;;;;;5078314;28;19920;-59
2021/09/06 07:31:17;;;;;;;;;;;21.30;68.90;;;;;;5065164;28;20474;-58
2021/09/06 07:33:42;;;;;;;;;;;21.30;68.90;;;;;;5080261;28;19920;-60
2021/09/06 07:36:08;;;;;;;;;;;21.30;68.90;;;;;;5070764;28;19916;-60
2021/09/06 07:38:33;;;;;;;;;;;21.30;68.90;;;;;;5067477;28;19920;-61
2021/09/06 07:40:59;;;;;;;;;;;21.30;69.00;;;;;;5081317;28;20441;-60
2021/09/06 07:43:24;;;;;;;;;;;21.30;68.90;;;;;;5074349;28;19919;-61
2021/09/06 07:45:50;;;;;;;;;;;21.30;68.90;;;;;;5081860;28;20361;-61
2021/09/06 07:48:15;;;;;;;;;;;21.30;69.00;;;;;;5081648;28;19912;-61
2021/09/06 07:50:41;;;;;;;;;;;21.30;69.10;;;;;;5080548;28;19912;-62
2021/09/06 07:53:07;;;;;;;;;;;21.30;69.10;;;;;;5066691;28;19920;-61
2021/09/06 07:55:32;;;;;;;;;;;21.30;69.10;;;;;;5072249;28;19913;-61
2021/09/06 07:57:57;;;;;;;;;;;21.30;69.20;;;;;;5071822;28;20620;-60
2021/09/06 08:00:23;;;;;;;;;;;21.30;69.20;;;;;;5066708;28;19921;-60
2021/09/06 08:02:49;;;;;;;;;;;21.30;69.20;;;;;;5076969;28;19919;-61
2021/09/06 08:05:18;;;;;;;;;;;21.30;69.20;;;;;;5074985;28;19913;-62
2021/09/06 08:07:43;;;;;;;;;;;21.30;69.30;;;;;;5062618;28;19916;-60
2021/09/06 08:10:09;;;;;;;;;;;21.30;69.30;;;;;;5070365;28;20292;-60
2021/09/06 08:12:36;;;;;;;;;;;21.30;69.30;;;;;;5071170;28;19952;-62
2021/09/06 08:15:02;;;;;;;;;;;21.20;69.40;;;;;;5060936;28;20369;-61
2021/09/06 08:17:28;;;;;;;;;;;21.20;69.40;;;;;;5061761;28;19924;-59
2021/09/06 08:19:53;;;;;;;;;;;21.20;69.50;;;;;;5060755;28;19917;-61
2021/09/06 08:22:19;;;;;;;;;;;21.30;69.50;;;;;;5061078;28;19920;-61
2021/09/06 08:24:44;;;;;;;;;;;21.30;69.60;;;;;;5072244;28;19918;-60
2021/09/06 08:27:10;;;;;;;;;;;21.20;69.50;;;;;;5073645;28;20347;-64
2021/09/06 08:29:35;;;;;;;;;;;21.20;69.50;;;;;;5080496;28;19935;-61
2021/09/06 08:32:01;;;;;;;;;;;21.20;69.60;;;;;;5076725;28;19916;-60
2021/09/06 08:34:26;;;;;;;;;;;21.20;69.50;;;;;;5069835;28;19995;-60
2021/09/06 08:36:51;;;;;;;;;;;21.20;69.60;;;;;;5062736;28;20416;-61
2021/09/06 08:39:17;;;;;;;;;;;21.20;69.60;;;;;;5061614;28;19990;-60
2021/09/06 08:41:42;;;;;;;;;;;21.20;69.70;;;;;;5072730;28;21964;-59
2021/09/06 08:44:08;;;;;;;;;;;21.20;69.70;;;;;;5067638;28;19913;-61
2021/09/06 08:46:34;;;;;;;;;;;21.20;69.70;;;;;;5061550;28;20377;-59
2021/09/06 08:48:59;;;;;;;;;;;21.20;69.70;;;;;;5078632;28;20027;-61
2021/09/06 08:51:24;;;;;;;;;;;21.30;69.70;;;;;;5079194;28;19949;-59
2021/09/06 08:53:50;;;;;;;;;;;21.20;69.70;;;;;;5081284;28;19916;-60
2021/09/06 08:56:17;;;;;;;;;;;21.20;69.70;;;;;;5081375;28;19923;-61
2021/09/06 08:58:42;;;;;;;;;;;21.20;69.80;;;;;;5067462;28;19912;-61
2021/09/06 09:01:08;;;;;;;;;;;21.20;69.70;;;;;;5058806;28;20537;-60
2021/09/06 09:03:33;;;;;;;;;;;21.20;69.70;;;;;;5060834;28;19974;-61
2021/09/06 09:05:59;;;;;;;;;;;21.20;69.80;;;;;;5060343;28;19921;-60
2021/09/06 09:08:25;;;;;;;;;;;21.20;69.90;;;;;;5060246;28;19916;-61
2021/09/06 09:10:50;;;;;;;;;;;21.20;69.80;;;;;;5061512;28;19943;-61
2021/09/06 09:13:16;;;;;;;;;;;21.20;69.80;;;;;;5069492;28;19913;-61
2021/09/06 09:15:50;;;;;;;;;;;21.20;69.90;;;;;;5067179;28;19924;-61
2021/09/06 09:18:21;;;;;;;;;;;21.20;70.00;;;;;;5063509;28;22060;-62
2021/09/06 09:20:47;;;;;;;;;;;21.20;69.90;;;;;;5060763;28;20530;-60
2021/09/06 09:23:12;;;;;;;;;;;21.20;70.00;;;;;;5077496;28;19946;-61
2021/09/06 09:25:37;;;;;;;;;;;21.20;70.00;;;;;;5078310;28;20713;-60
2021/09/06 09:28:03;;;;;;;;;;;21.20;69.90;;;;;;5080423;28;19916;-60
2021/09/06 09:30:30;;;;;;;;;;;21.20;70.00;;;;;;5079683;28;20016;-62
2021/09/06 09:33:22;;;;;;;;;;;21.20;70.00;;;;;;5064597;28;19916;-61
2021/09/06 09:35:47;;;;;;;;;;;21.20;70.00;;;;;;5072469;28;19916;-62
2021/09/06 09:38:13;;;;;;;;;;;21.20;70.00;;;;;;5078982;28;20404;-61
2021/09/06 09:40:42;;;;;;;;;;;21.20;70.00;;;;;;5081077;28;19920;-61
2021/09/06 09:43:07;;;;;;;;;;;21.20;70.00;;;;;;5080450;28;20408;-61
2021/09/06 09:45:33;;;;;;;;;;;21.20;70.00;;;;;;5069785;28;19960;-60
2021/09/06 09:47:58;;;;;;;;;;;21.20;70.00;;;;;;5076984;28;19923;-60
2021/09/06 09:50:24;;;;;;;;;;;21.20;70.00;;;;;;5069266;28;19944;-60
2021/09/06 09:52:51;;;;;;;;;;;21.20;70.10;;;;;;5070575;28;19946;-61
2021/09/06 09:55:16;;;;;;;;;;;21.10;70.40;;;;;;5069089;28;19916;-60
2021/09/06 09:57:42;;;;;;;;;;;21.10;70.20;;;;;;5075430;28;20412;-61
2021/09/06 10:00:07;;;;;;;;;;;21.10;70.20;;;;;;5080397;28;19912;-60
2021/09/06 10:02:33;;;;;;;;;;;21.10;70.10;;;;;;5069293;28;19917;-60
2021/09/06 10:05:02;;;;;;;;;;;21.10;70.10;;;;;;5067903;28;19917;-60
2021/09/06 10:07:31;;;;;;;;;;;21.10;70.20;;;;;;5072339;28;19916;-61
2021/09/06 10:09:56;;;;;;;;;;;21.10;70.30;;;;;;5074818;28;20010;-61
2021/09/06 10:12:23;;;;;;;;;;;21.10;70.40;;;;;;5096056;22;19924;-53
2021/09/06 10:14:49;;;;;;;;;;;21.10;70.40;;;;;;5082912;28;20308;-60
2021/09/06 10:17:15;;;;;;;;;;;21.10;70.30;;;;;;5103009;28;19920;-52
2021/09/06 10:19:44;;;;;;;;;;;21.10;70.40;;;;;;5101867;28;19920;-55
2021/09/06 10:22:22;;;;;;;;;;;21.10;70.30;;;;;;5084167;28;19919;-57
2021/09/06 10:24:57;;;;;;;;;;;21.10;70.30;;;;;;5057586;28;20385;-58
2021/09/06 10:27:23;;;;;;;;;;;21.10;70.30;;;;;;5101635;28;19955;-50
2021/09/06 10:29:58;;;;;;;;;;;21.10;70.40;;;;;;5102017;28;20376;-51
2021/09/06 10:32:32;;;;;;;;;;;21.10;70.30;;;;;;5102064;28;19938;-57
2021/09/06 10:35:02;;;;;;;;;;;21.10;70.20;;;;;;5075779;28;19911;-56
2021/09/06 10:37:28;;;;;;;;;;;21.10;70.30;;;;;;5083464;28;20007;-50
2021/09/06 10:39:53;;;;;;;;;;;21.10;70.30;;;;;;5101425;28;20003;-50
2021/09/06 10:42:19;;;;;;;;;;;21.10;70.40;;;;;;5083278;28;20571;-59
2021/09/06 10:44:54;;;;;;;;;;;21.10;70.30;;;;;;5083491;28;19912;-55
2021/09/06 10:47:19;;;;;;;;;;;21.10;70.30;;;;;;5083205;28;19919;-59
2021/09/06 10:49:44;;;;;;;;;;;21.10;70.20;;;;;;5083837;28;19912;-57
2021/09/06 10:52:10;;;;;;;;;;;21.10;70.20;;;;;;5101950;28;19916;-50
2021/09/06 10:54:36;;;;;;;;;;;21.10;70.40;;;;;;5101092;28;20024;-52
2021/09/06 10:57:03;;;;;;;;;;;21.10;70.40;;;;;;5102128;28;20588;-54
2021/09/06 10:59:28;;;;;;;;;;;21.10;70.40;;;;;;5101016;28;19923;-53
2021/09/06 11:01:57;;;;;;;;;;;21.10;70.30;;;;;;5102049;28;19912;-55
2021/09/06 11:04:23;;;;;;;;;;;21.10;70.30;;;;;;5101329;28;19984;-57
2021/09/06 11:06:57;;;;;;;;;;;21.10;70.40;;;;;;5084769;28;20424;-60
2021/09/06 11:09:26;;;;;;;;;;;21.10;70.30;;;;;;5072616;28;19916;-55
2021/09/06 11:11:57;;;;;;;;;;;21.10;70.40;;;;;;5102225;28;19923;-56
2021/09/06 11:14:30;;;;;;;;;;;21.10;70.40;;;;;;5101661;28;19916;-53
2021/09/06 11:16:56;;;;;;;;;;;21.10;70.40;;;;;;5105413;28;20355;-53
2021/09/06 11:19:21;;;;;;;;;;;21.10;70.40;;;;;;5086228;28;19915;-59
2021/09/06 11:21:47;;;;;;;;;;;21.10;70.40;;;;;;5087510;28;20110;-58
2021/09/06 11:24:12;;;;;;;;;;;21.10;70.40;;;;;;5086942;28;19927;-52
2021/09/06 11:26:40;;;;;;;;;;;21.00;70.50;;;;;;5104483;28;20514;-59
2021/09/06 11:29:06;;;;;;;;;;;21.00;70.40;;;;;;5104667;28;19911;-56
2021/09/06 11:31:31;;;;;;;;;;;21.10;70.50;;;;;;5087805;28;19919;-57
2021/09/06 11:34:04;;;;;;;;;;;21.10;70.60;;;;;;5105136;28;19912;-56
2021/09/06 11:36:30;;;;;;;;;;;21.00;70.60;;;;;;5087164;28;19976;-57
2021/09/06 11:38:56;;;;;;;;;;;21.00;70.70;;;;;;5104988;28;19995;-56
2021/09/06 11:41:21;;;;;;;;;;;21.00;70.70;;;;;;5105076;28;19999;-58
2021/09/06 11:43:47;;;;;;;;;;;21.00;70.80;;;;;;5105882;28;19934;-54
2021/09/06 11:46:13;;;;;;;;;;;21.00;70.70;;;;;;5105279;28;19912;-57
2021/09/06 11:48:39;;;;;;;;;;;21.00;70.80;;;;;;5086757;28;20424;-53
2021/09/06 11:51:08;;;;;;;;;;;21.00;70.80;;;;;;5097876;28;19951;-53
2021/09/06 11:53:34;;;;;;;;;;;21.00;70.80;;;;;;5070995;28;19958;-54
2021/09/06 11:55:59;;;;;;;;;;;21.00;70.80;;;;;;5102078;28;19912;-53
2021/09/06 11:58:25;;;;;;;;;;;21.10;70.80;;;;;;5089400;28;19912;-57
2021/09/06 12:00:51;;;;;;;;;;;21.00;70.80;;;;;;5102407;28;19947;-59
2021/09/06 12:03:23;;;;;;;;;;;21.00;70.80;;;;;;5090618;28;20269;-56
2021/09/06 12:05:50;;;;;;;;;;;21.00;70.70;;;;;;5103883;28;20461;-54
2021/09/06 12:08:16;;;;;;;;;;;21.00;70.80;;;;;;5093718;28;19912;-56
2021/09/06 12:10:42;;;;;;;;;;;21.10;70.80;;;;;;5086183;28;20438;-51
2021/09/06 12:13:09;;;;;;;;;;;21.00;70.80;;;;;;5092448;28;19926;-52
2021/09/06 12:15:36;;;;;;;;;;;21.00;70.80;;;;;;5068973;28;20048;-52
2021/09/06 12:18:11;;;;;;;;;;;21.00;70.80;;;;;;5092356;28;19965;-58
2021/09/06 12:20:39;;;;;;;;;;;21.00;70.80;;;;;;5086619;28;19912;-54
2021/09/06 12:23:05;;;;;;;;;;;21.00;70.80;;;;;;5075314;28;19998;-56
2021/09/06 12:25:31;;;;;;;;;;;21.00;70.80;;;;;;5103528;28;19919;-56
2021/09/06 12:28:05;;;;;;;;;;;21.00;70.70;;;;;;5091502;28;19912;-56
2021/09/06 12:30:30;;;;;;;;;;;21.00;70.80;;;;;;5084102;28;19923;-55
2021/09/06 12:32:55;;;;;;;;;;;21.00;70.80;;;;;;5093214;28;19912;-59
2021/09/06 12:35:21;;;;;;;;;;;21.10;70.80;;;;;;5103456;28;19915;-58
2021/09/06 12:37:46;;;;;;;;;;;21.00;70.80;;;;;;5076043;28;19971;-59
2021/09/06 12:40:12;;;;;;;;;;;21.00;70.80;;;;;;5085253;28;19933;-55
2021/09/06 12:42:37;;;;;;;;;;;21.10;70.80;;;;;;5093969;28;24782;-53
2021/09/06 12:45:03;;;;;;;;;;;21.00;70.70;;;;;;5085370;28;19923;-56
2021/09/06 12:47:28;;;;;;;;;;;21.00;70.50;;;;;;5093708;28;19964;-51
2021/09/06 12:49:54;;;;;;;;;;;21.00;70.60;;;;;;5102153;28;20544;-56
2021/09/06 12:52:19;;;;;;;;;;;21.10;70.50;;;;;;5097653;28;19911;-52
2021/09/06 12:54:45;;;;;;;;;;;21.00;70.50;;;;;;5101011;28;19919;-58
2021/09/06 12:57:11;;;;;;;;;;;21.10;70.50;;;;;;5105497;28;19920;-54
2021/09/06 12:59:37;;;;;;;;;;;21.00;70.40;;;;;;5090477;28;19916;-53
2021/09/06 13:02:02;;;;;;;;;;;21.00;70.40;;;;;;5104403;28;19930;-54
2021/09/06 13:04:28;;;;;;;;;;;21.10;70.60;;;;;;5090264;28;19976;-52
2021/09/06 13:06:54;;;;;;;;;;;21.00;71.30;;;;;;5086478;28;19916;-53
2021/09/06 13:09:19;;;;;;;;;;;21.00;70.70;;;;;;5090252;28;19964;-50
2021/09/06 13:11:44;;;;;;;;;;;21.10;70.80;;;;;;5085857;28;19920;-57
2021/09/06 13:14:10;;;;;;;;;;;21.10;70.80;;;;;;5089434;28;19927;-56
2021/09/06 13:16:35;;;;;;;;;;;21.10;70.80;;;;;;5097106;28;20350;-50
2021/09/06 13:19:01;;;;;;;;;;;21.10;70.70;;;;;;5097405;28;19916;-57
2021/09/06 13:21:27;;;;;;;;;;;21.10;70.70;;;;;;5085624;28;20449;-59
2021/09/06 13:23:52;;;;;;;;;;;21.10;70.60;;;;;;5103793;28;19918;-56
2021/09/06 13:26:17;;;;;;;;;;;21.10;70.50;;;;;;5086115;28;19942;-55
2021/09/06 13:28:43;;;;;;;;;;;21.10;70.40;;;;;;5102622;28;19924;-58
2021/09/06 13:31:09;;;;;;;;;;;21.10;70.40;;;;;;5103015;28;19919;-54
2021/09/06 13:33:37;;;;;;;;;;;21.10;70.40;;;;;;5084807;28;19993;-59
2021/09/06 13:36:03;;;;;;;;;;;21.10;70.30;;;;;;5102933;28;19958;-51
2021/09/06 13:38:28;;;;;;;;;;;21.10;70.30;;;;;;5101968;28;19916;-54
2021/09/06 13:40:54;;;;;;;;;;;21.10;70.30;;;;;;5103348;28;19923;-54
2021/09/06 13:43:19;;;;;;;;;;;21.10;70.30;;;;;;5103296;28;19919;-59
2021/09/06 13:45:45;;;;;;;;;;;21.10;70.20;;;;;;5072877;28;19912;-53
2021/09/06 13:48:10;;;;;;;;;;;21.10;70.20;;;;;;5084544;28;20318;-52
2021/09/06 13:50:36;;;;;;;;;;;21.10;70.10;;;;;;5102556;28;19912;-58
2021/09/06 13:53:01;;;;;;;;;;;21.10;70.10;;;;;;5102356;28;19922;-50
2021/09/06 13:55:27;;;;;;;;;;;21.10;70.20;;;;;;5102892;28;19912;-53
2021/09/06 13:57:52;;;;;;;;;;;21.10;70.30;;;;;;5103175;28;20650;-58
2021/09/06 14:00:17;;;;;;;;;;;21.10;70.50;;;;;;5103658;28;20287;-50
2021/09/06 14:02:45;;;;;;;;;;;21.10;70.40;;;;;;5102084;28;19942;-56
2021/09/06 14:05:10;;;;;;;;;;;21.10;70.40;;;;;;5102337;28;20126;-59
2021/09/06 14:07:36;;;;;;;;;;;21.10;70.40;;;;;;5102907;28;20015;-55